sensor_id;sensor_type;location;lat;lon;timestamp;pressure;altitude;pressure_sealevel;temperature;humidity
68873;BME280;55907;50.806;12.882;2022-11-20T00:02:07;969.0;;;-5.3;79.9
68873;BME280;55907;50.806;12.882;2022-11-20T00:05:09;968.9;;;-5.4;80.1
68873;BME280;55907;50.806;12.882;2022-11-20T00:08:11;968.9;;;-5.4;80.1
68873;BME280;55907;50.806;12.882;2022-11-20T00:11:14;968.9;;;-5.5;80.8
68873;BME280;55907;50.806;12.882;2022-11-20T00:14:14;969.0;;;-5.4;80.7
68873;BME280;55907;50.806;12.882;2022-11-20T00:17:16;969.0;;;-5.4;80.5
68873;BME280;55907;50.806;12.882;2022-11-20T00:20:17;968.9;;;-5.4;80.7
68873;BME280;55907;50.806;12.882;2022-11-20T00:23:19;968.9;;;-5.3;80.2
68873;BME280;55907;50.806;12.882;2022-11-20T00:26:23;968.9;;;-5.3;80.4
68873;BME280;55907;50.806;12.882;2022-11-20T00:29:22;968.9;;;-5.3;79.8
68873;BME280;55907;50.806;12.882;2022-11-20T00:32:24;968.9;;;-5.3;80.0
68873;BME280;55907;50.806;12.882;2022-11-20T00:35:26;968.8;;;-5.3;80.1
68873;BME280;55907;50.806;12.882;2022-11-20T00:38:27;968.8;;;-5.3;80.6
68873;BME280;55907;50.806;12.882;2022-11-20T00:41:29;968.9;;;-5.3;80.4
68873;BME280;55907;50.806;12.882;2022-11-20T00:43:54;unavailable;;;unavailable;unavailable
68873;BME280;55907;50.806;12.882;2022-11-20T00:43:56;968.9;;;-5.3;80.5
68873;BME280;55907;50.806;12.882;2022-11-20T00:44:31;968.9;;;-5.3;80.8
68873;BME280;55907;50.806;12.882;2022-11-20T00:47:32;969.0;;;-5.2;79.9
68873;BME280;55907;50.806;12.882;2022-11-20T00:50:34;969.0;;;-5.1;80.1
68873;BME280;55907;50.806;12.882;2022-11-20T00:51:49;unavailable;;;unavailable;unavailable
68873;BME280;55907;50.806;12.882;2022-11-20T00:52:05;969.0;;;-5.0;79.2
68873;BME280;55907;50.806;12.882;2022-11-20T00:53:36;968.9;;;-5.0;79.1
68873;BME280;55907;50.806;12.882;2022-11-20T00:56:37;969.0;;;-4.9;78.6
68873;BME280;55907;50.806;12.882;2022-11-20T00:59:39;969.0;;;-4.8;78.2
68873;BME280;55907;50.806;12.882;2022-11-20T01:02:41;969.0;;;-4.8;78.0
68873;BME280;55907;50.806;12.882;2022-11-20T01:05:43;969.0;;;-4.8;77.2
68873;BME280;55907;50.806;12.882;2022-11-20T01:08:45;968.9;;;-4.9;77.4
68873;BME280;55907;50.806;12.882;2022-11-20T01:11:45;968.9;;;-5.1;77.8
68873;BME280;55907;50.806;12.882;2022-11-20T01:14:47;968.9;;;-5.1;78.0
68873;BME280;55907;50.806;12.882;2022-11-20T01:17:49;968.8;;;-5.2;78.5
68873;BME280;55907;50.806;12.882;2022-11-20T01:23:53;968.8;;;-5.4;78.7
68873;BME280;55907;50.806;12.882;2022-11-20T01:26:54;968.8;;;-5.4;78.3
68873;BME280;55907;50.806;12.882;2022-11-20T01:29:55;968.8;;;-5.5;79.0
68873;BME280;55907;50.806;12.882;2022-11-20T01:32:57;968.8;;;-5.6;78.9
68873;BME280;55907;50.806;12.882;2022-11-20T01:36:03;968.7;;;-5.7;78.8
68873;BME280;55907;50.806;12.882;2022-11-20T01:39:03;968.7;;;-5.7;78.4
68873;BME280;55907;50.806;12.882;2022-11-20T01:42:02;968.7;;;-5.8;79.1
68873;BME280;55907;50.806;12.882;2022-11-20T01:48:06;968.6;;;-5.8;78.6
68873;BME280;55907;50.806;12.882;2022-11-20T01:51:13;968.6;;;-5.8;78.7
68873;BME280;55907;50.806;12.882;2022-11-20T01:54:13;968.6;;;-5.8;79.4
68873;BME280;55907;50.806;12.882;2022-11-20T01:57:12;968.5;;;-5.8;80.0
68873;BME280;55907;50.806;12.882;2022-11-20T02:00:15;968.6;;;-5.8;79.9
68873;BME280;55907;50.806;12.882;2022-11-20T02:03:16;968.6;;;-5.8;80.4
68873;BME280;55907;50.806;12.882;2022-11-20T02:06:19;968.6;;;-5.8;80.1
68873;BME280;55907;50.806;12.882;2022-11-20T02:09:17;968.5;;;-5.8;80.1
68873;BME280;55907;50.806;12.882;2022-11-20T02:12:19;968.6;;;-5.8;79.8
68873;BME280;55907;50.806;12.882;2022-11-20T02:15:21;968.5;;;-5.7;79.4
68873;BME280;55907;50.806;12.882;2022-11-20T02:18:23;968.5;;;-5.7;79.7
68873;BME280;55907;50.806;12.882;2022-11-20T02:21:29;968.5;;;-5.7;79.9
68873;BME280;55907;50.806;12.882;2022-11-20T02:24:26;968.4;;;-5.7;80.1
68873;BME280;55907;50.806;12.882;2022-11-20T02:27:28;968.4;;;-5.7;79.9
68873;BME280;55907;50.806;12.882;2022-11-20T02:30:29;968.4;;;-5.7;80.5
68873;BME280;55907;50.806;12.882;2022-11-20T02:33:31;968.4;;;-5.7;80.4
68873;BME280;55907;50.806;12.882;2022-11-20T02:36:34;968.4;;;-5.7;79.5
68873;BME280;55907;50.806;12.882;2022-11-20T02:39:34;968.3;;;-5.7;79.7
68873;BME280;55907;50.806;12.882;2022-11-20T02:42:36;968.3;;;-5.7;78.7
68873;BME280;55907;50.806;12.882;2022-11-20T02:45:38;968.3;;;-5.7;79.3
68873;BME280;55907;50.806;12.882;2022-11-20T02:48:39;968.3;;;-5.7;79.5
68873;BME280;55907;50.806;12.882;2022-11-20T02:51:41;968.3;;;-5.7;79.1
68873;BME280;55907;50.806;12.882;2022-11-20T02:54:42;968.3;;;-5.7;78.9
68873;BME280;55907;50.806;12.882;2022-11-20T02:57:44;968.3;;;-5.7;78.9
68873;BME280;55907;50.806;12.882;2022-11-20T02:58:41;unavailable;;;unavailable;unavailable
68873;BME280;55907;50.806;12.882;2022-11-20T02:58:47;968.3;;;-5.7;78.7
68873;BME280;55907;50.806;12.882;2022-11-20T03:00:09;unavailable;;;unavailable;unavailable
68873;BME280;55907;50.806;12.882;2022-11-20T03:00:13;968.3;;;-5.6;78.4
68873;BME280;55907;50.806;12.882;2022-11-20T03:00:46;968.3;;;-5.6;78.4
68873;BME280;55907;50.806;12.882;2022-11-20T03:03:47;968.3;;;-5.6;78.1
68873;BME280;55907;50.806;12.882;2022-11-20T03:06:49;968.3;;;-5.6;79.1
68873;BME280;55907;50.806;12.882;2022-11-20T03:09:51;968.3;;;-5.5;77.4
68873;BME280;55907;50.806;12.882;2022-11-20T03:12:00;unavailable;;;unavailable;unavailable
68873;BME280;55907;50.806;12.882;2022-11-20T03:12:05;968.3;;;-5.4;77.2
68873;BME280;55907;50.806;12.882;2022-11-20T03:12:53;968.3;;;-5.4;77.2
68873;BME280;55907;50.806;12.882;2022-11-20T03:14:27;unavailable;;;unavailable;unavailable
68873;BME280;55907;50.806;12.882;2022-11-20T03:14:35;968.3;;;-5.4;77.5
68873;BME280;55907;50.806;12.882;2022-11-20T03:15:54;968.3;;;-5.4;77.3
68873;BME280;55907;50.806;12.882;2022-11-20T03:18:55;968.3;;;-5.4;77.2
68873;BME280;55907;50.806;12.882;2022-11-20T03:21:57;968.3;;;-5.3;76.7
68873;BME280;55907;50.806;12.882;2022-11-20T03:28:00;968.2;;;-5.5;77.1
68873;BME280;55907;50.806;12.882;2022-11-20T03:31:07;968.3;;;-5.6;77.5
68873;BME280;55907;50.806;12.882;2022-11-20T03:34:04;968.2;;;-5.8;77.8
68873;BME280;55907;50.806;12.882;2022-11-20T03:37:06;968.2;;;-5.8;77.5
68873;BME280;55907;50.806;12.882;2022-11-20T03:40:08;968.1;;;-5.8;77.4
68873;BME280;55907;50.806;12.882;2022-11-20T03:43:09;968.2;;;-5.9;78.0
68873;BME280;55907;50.806;12.882;2022-11-20T03:46:11;968.1;;;-5.9;77.7
68873;BME280;55907;50.806;12.882;2022-11-20T03:49:12;968.0;;;-5.9;77.3
68873;BME280;55907;50.806;12.882;2022-11-20T03:52:14;968.0;;;-6.0;77.2
68873;BME280;55907;50.806;12.882;2022-11-20T03:55:16;968.0;;;-6.0;77.1
68873;BME280;55907;50.806;12.882;2022-11-20T03:58:17;968.0;;;-6.1;78.2
68873;BME280;55907;50.806;12.882;2022-11-20T04:01:21;968.0;;;-6.1;78.1
68873;BME280;55907;50.806;12.882;2022-11-20T04:04:21;967.9;;;-6.2;78.6
68873;BME280;55907;50.806;12.882;2022-11-20T04:07:22;967.9;;;-6.2;78.3
68873;BME280;55907;50.806;12.882;2022-11-20T04:10:24;967.9;;;-6.3;78.3
68873;BME280;55907;50.806;12.882;2022-11-20T04:13:26;967.9;;;-6.3;78.5
68873;BME280;55907;50.806;12.882;2022-11-20T04:16:30;967.9;;;-6.4;79.4
68873;BME280;55907;50.806;12.882;2022-11-20T04:19:29;unavailable;;;unavailable;unavailable
68873;BME280;55907;50.806;12.882;2022-11-20T04:19:29;967.9;;;-6.4;unavailable
68873;BME280;55907;50.806;12.882;2022-11-20T04:21:29;unavailable;;;unavailable;unavailable
68873;BME280;55907;50.806;12.882;2022-11-20T04:21:36;967.9;;;-6.3;79.3
68873;BME280;55907;50.806;12.882;2022-11-20T04:22:31;967.9;;;-6.2;79.3
68873;BME280;55907;50.806;12.882;2022-11-20T04:25:32;967.9;;;-6.2;79.3
68873;BME280;55907;50.806;12.882;2022-11-20T04:26:39;unavailable;;;unavailable;unavailable
68873;BME280;55907;50.806;12.882;2022-11-20T04:26:43;967.9;;;-6.1;79.4
68873;BME280;55907;50.806;12.882;2022-11-20T04:28:34;967.9;;;-6.1;79.0
68873;BME280;55907;50.806;12.882;2022-11-20T04:29:00;unavailable;;;unavailable;unavailable
68873;BME280;55907;50.806;12.882;2022-11-20T04:29:04;967.9;;;-6.0;unavailable
68873;BME280;55907;50.806;12.882;2022-11-20T04:29:46;unavailable;;;unavailable;unavailable
68873;BME280;55907;50.806;12.882;2022-11-20T04:30:13;967.9;;;-6.0;78.7
68873;BME280;55907;50.806;12.882;2022-11-20T04:30:38;unavailable;;;unavailable;unavailable
68873;BME280;55907;50.806;12.882;2022-11-20T04:30:43;967.9;;;-6.0;78.7
68873;BME280;55907;50.806;12.882;2022-11-20T04:31:36;967.9;;;-6.0;78.7
68873;BME280;55907;50.806;12.882;2022-11-20T04:34:37;967.8;;;-5.8;78.1
68873;BME280;55907;50.806;12.882;2022-11-20T04:37:39;967.8;;;-5.8;77.8
68873;BME280;55907;50.806;12.882;2022-11-20T04:38:35;unavailable;;;unavailable;unavailable
68873;BME280;55907;50.806;12.882;2022-11-20T04:40:41;967.8;;;-5.8;77.3
68873;BME280;55907;50.806;12.882;2022-11-20T04:43:46;967.9;;;-5.8;77.3
68873;BME280;55907;50.806;12.882;2022-11-20T04:46:44;967.9;;;-5.9;77.8
68873;BME280;55907;50.806;12.882;2022-11-20T04:49:46;967.9;;;-6.0;77.9
68873;BME280;55907;50.806;12.882;2022-11-20T04:52:47;967.9;;;-6.1;78.1
68873;BME280;55907;50.806;12.882;2022-11-20T04:55:49;967.9;;;-6.2;78.4
68873;BME280;55907;50.806;12.882;2022-11-20T04:58:51;967.9;;;-6.2;78.5
68873;BME280;55907;50.806;12.882;2022-11-20T05:01:52;967.9;;;-6.3;78.6
68873;BME280;55907;50.806;12.882;2022-11-20T05:04:54;967.9;;;-6.3;78.8
68873;BME280;55907;50.806;12.882;2022-11-20T05:07:56;967.9;;;-6.3;79.3
68873;BME280;55907;50.806;12.882;2022-11-20T05:10:59;967.8;;;-6.4;79.6
68873;BME280;55907;50.806;12.882;2022-11-20T05:13:59;967.8;;;-6.4;79.4
68873;BME280;55907;50.806;12.882;2022-11-20T05:17:01;967.8;;;-6.4;79.0
68873;BME280;55907;50.806;12.882;2022-11-20T05:20:03;967.8;;;-6.4;79.2
68873;BME280;55907;50.806;12.882;2022-11-20T05:23:04;967.8;;;-6.3;78.3
68873;BME280;55907;50.806;12.882;2022-11-20T05:26:07;967.7;;;-6.3;78.6
68873;BME280;55907;50.806;12.882;2022-11-20T05:29:10;967.8;;;-6.3;78.4
68873;BME280;55907;50.806;12.882;2022-11-20T05:32:09;967.7;;;-6.3;78.3
68873;BME280;55907;50.806;12.882;2022-11-20T05:35:11;967.7;;;-6.3;78.3
68873;BME280;55907;50.806;12.882;2022-11-20T05:38:13;967.7;;;-6.3;78.2
68873;BME280;55907;50.806;12.882;2022-11-20T05:41:16;967.6;;;-6.3;79.1
68873;BME280;55907;50.806;12.882;2022-11-20T05:44:16;967.5;;;-6.4;78.8
68873;BME280;55907;50.806;12.882;2022-11-20T05:47:18;967.5;;;-6.4;79.1
68873;BME280;55907;50.806;12.882;2022-11-20T05:50:19;967.5;;;-6.4;78.9
68873;BME280;55907;50.806;12.882;2022-11-20T05:53:21;967.5;;;-6.3;78.6
68873;BME280;55907;50.806;12.882;2022-11-20T05:56:23;967.5;;;-6.1;77.9
68873;BME280;55907;50.806;12.882;2022-11-20T05:59:24;967.4;;;-6.2;78.1
68873;BME280;55907;50.806;12.882;2022-11-20T06:02:26;967.4;;;-6.3;78.1
68873;BME280;55907;50.806;12.882;2022-11-20T06:05:28;967.4;;;-6.3;78.1
68873;BME280;55907;50.806;12.882;2022-11-20T06:08:30;967.4;;;-6.4;78.1
68873;BME280;55907;50.806;12.882;2022-11-20T06:11:31;967.5;;;-6.4;78.5
68873;BME280;55907;50.806;12.882;2022-11-20T06:14:33;967.5;;;-6.5;78.7
68873;BME280;55907;50.806;12.882;2022-11-20T06:17:35;967.5;;;-6.5;78.6
68873;BME280;55907;50.806;12.882;2022-11-20T06:20:36;967.5;;;-6.5;78.4
68873;BME280;55907;50.806;12.882;2022-11-20T06:23:38;967.5;;;-6.5;78.3
68873;BME280;55907;50.806;12.882;2022-11-20T06:26:40;967.6;;;-6.5;79.0
68873;BME280;55907;50.806;12.882;2022-11-20T06:29:41;967.6;;;-6.5;78.7
68873;BME280;55907;50.806;12.882;2022-11-20T06:32:43;967.6;;;-6.4;78.8
68873;BME280;55907;50.806;12.882;2022-11-20T06:35:45;967.6;;;-6.4;78.2
68873;BME280;55907;50.806;12.882;2022-11-20T06:38:46;967.5;;;-6.4;78.0
68873;BME280;55907;50.806;12.882;2022-11-20T06:41:48;967.6;;;-6.3;78.1
68873;BME280;55907;50.806;12.882;2022-11-20T06:44:50;967.6;;;-6.3;78.0
68873;BME280;55907;50.806;12.882;2022-11-20T06:47:51;967.5;;;-6.3;78.0
68873;BME280;55907;50.806;12.882;2022-11-20T06:50:53;967.4;;;-6.2;78.1
68873;BME280;55907;50.806;12.882;2022-11-20T06:53:55;967.5;;;-6.2;78.3
68873;BME280;55907;50.806;12.882;2022-11-20T06:56:57;967.5;;;-6.2;77.8
68873;BME280;55907;50.806;12.882;2022-11-20T06:59:58;967.4;;;-6.1;77.3
68873;BME280;55907;50.806;12.882;2022-11-20T07:03:02;967.5;;;-6.0;77.2
68873;BME280;55907;50.806;12.882;2022-11-20T07:06:02;967.6;;;-5.8;76.9
68873;BME280;55907;50.806;12.882;2022-11-20T07:09:03;967.6;;;-5.5;76.4
68873;BME280;55907;50.806;12.882;2022-11-20T07:12:05;967.6;;;-4.9;75.1
68873;BME280;55907;50.806;12.882;2022-11-20T07:15:07;967.6;;;-4.6;73.6
68873;BME280;55907;50.806;12.882;2022-11-20T07:18:08;967.6;;;-4.4;73.0
68873;BME280;55907;50.806;12.882;2022-11-20T07:21:10;967.6;;;-4.3;72.5
68873;BME280;55907;50.806;12.882;2022-11-20T07:24:12;967.6;;;-4.1;71.7
68873;BME280;55907;50.806;12.882;2022-11-20T07:27:13;967.6;;;-3.9;71.1
68873;BME280;55907;50.806;12.882;2022-11-20T07:30:15;967.6;;;-3.8;70.6
68873;BME280;55907;50.806;12.882;2022-11-20T07:33:17;967.6;;;-3.6;70.3
68873;BME280;55907;50.806;12.882;2022-11-20T07:36:18;967.6;;;-3.5;70.2
68873;BME280;55907;50.806;12.882;2022-11-20T07:39:20;967.6;;;-3.2;69.6
68873;BME280;55907;50.806;12.882;2022-11-20T07:42:22;967.5;;;-3.0;69.1
68873;BME280;55907;50.806;12.882;2022-11-20T07:45:24;967.5;;;-2.7;69.1
68873;BME280;55907;50.806;12.882;2022-11-20T07:48:25;967.6;;;-2.5;68.4
68873;BME280;55907;50.806;12.882;2022-11-20T07:51:27;967.6;;;-2.7;68.5
68873;BME280;55907;50.806;12.882;2022-11-20T07:54:28;967.5;;;-2.8;69.4
68873;BME280;55907;50.806;12.882;2022-11-20T07:57:30;967.5;;;-2.8;70.5
68873;BME280;55907;50.806;12.882;2022-11-20T08:00:32;967.6;;;-2.9;70.1
68873;BME280;55907;50.806;12.882;2022-11-20T08:03:33;967.4;;;-2.9;70.2
68873;BME280;55907;50.806;12.882;2022-11-20T08:06:35;967.5;;;-3.0;70.7
68873;BME280;55907;50.806;12.882;2022-11-20T08:09:36;967.4;;;-3.1;71.7
68873;BME280;55907;50.806;12.882;2022-11-20T08:12:43;967.4;;;-3.0;71.1
68873;BME280;55907;50.806;12.882;2022-11-20T08:15:40;967.4;;;-3.1;71.2
68873;BME280;55907;50.806;12.882;2022-11-20T08:18:41;967.4;;;-3.0;71.7
68873;BME280;55907;50.806;12.882;2022-11-20T08:21:43;967.4;;;-3.0;unknown
68873;BME280;55907;50.806;12.882;2022-11-20T08:24:45;967.3;;;-2.9;71.0
68873;BME280;55907;50.806;12.882;2022-11-20T08:27:38;unavailable;;;unavailable;unavailable
68873;BME280;55907;50.806;12.882;2022-11-20T08:33:43;967.3;;;-2.2;69.4
68873;BME280;55907;50.806;12.882;2022-11-20T08:33:50;967.3;;;-2.2;69.4
68873;BME280;55907;50.806;12.882;2022-11-20T08:36:51;967.3;;;-2.1;69.0
68873;BME280;55907;50.806;12.882;2022-11-20T08:39:53;967.2;;;-2.1;69.0
68873;BME280;55907;50.806;12.882;2022-11-20T08:42:54;967.2;;;-2.0;69.4
68873;BME280;55907;50.806;12.882;2022-11-20T08:45:56;967.2;;;-1.8;69.3
68873;BME280;55907;50.806;12.882;2022-11-20T08:48:58;967.2;;;-1.7;69.5
68873;BME280;55907;50.806;12.882;2022-11-20T08:51:59;967.3;;;-1.5;69.5
68873;BME280;55907;50.806;12.882;2022-11-20T08:55:01;967.3;;;-1.3;70.1
68873;BME280;55907;50.806;12.882;2022-11-20T08:58:03;967.2;;;-1.2;70.0
68873;BME280;55907;50.806;12.882;2022-11-20T09:01:04;967.1;;;-1.0;70.7
68873;BME280;55907;50.806;12.882;2022-11-20T09:04:06;967.2;;;-0.9;71.8
68873;BME280;55907;50.806;12.882;2022-11-20T09:06:29;967.1;;;-1.0;unavailable
68873;BME280;55907;50.806;12.882;2022-11-20T09:06:29;unavailable;;;unavailable;unavailable
68873;BME280;55907;50.806;12.882;2022-11-20T09:07:07;967.1;;;-0.9;71.2
68873;BME280;55907;50.806;12.882;2022-11-20T09:10:09;967.2;;;-0.7;71.3
68873;BME280;55907;50.806;12.882;2022-11-20T09:13:29;unavailable;;;unavailable;unavailable
68873;BME280;55907;50.806;12.882;2022-11-20T09:13:52;967.1;;;-0.6;71.1
68873;BME280;55907;50.806;12.882;2022-11-20T09:16:12;967.0;;;-0.3;70.6
68873;BME280;55907;50.806;12.882;2022-11-20T09:19:15;967.0;;;-0.2;70.3
68873;BME280;55907;50.806;12.882;2022-11-20T09:22:15;967.0;;;-0.0;69.8
68873;BME280;55907;50.806;12.882;2022-11-20T09:25:17;967.0;;;-0.0;70.0
68873;BME280;55907;50.806;12.882;2022-11-20T09:28:18;967.0;;;0.1;70.2
68873;BME280;55907;50.806;12.882;2022-11-20T09:31:22;967.0;;;0.4;69.5
68873;BME280;55907;50.806;12.882;2022-11-20T09:34:21;967.0;;;0.7;68.9
68873;BME280;55907;50.806;12.882;2022-11-20T09:37:25;967.0;;;0.8;68.6
68873;BME280;55907;50.806;12.882;2022-11-20T09:40:27;967.0;;;0.8;68.5
68873;BME280;55907;50.806;12.882;2022-11-20T09:43:32;967.0;;;0.7;68.9
68873;BME280;55907;50.806;12.882;2022-11-20T09:46:32;967.1;;;0.8;68.7
68873;BME280;55907;50.806;12.882;2022-11-20T09:49:36;967.0;;;0.6;68.3
68873;BME280;55907;50.806;12.882;2022-11-20T09:52:37;967.1;;;0.5;68.8
68873;BME280;55907;50.806;12.882;2022-11-20T09:55:33;967.0;;;0.5;69.0
68873;BME280;55907;50.806;12.882;2022-11-20T09:58:38;967.0;;;0.5;69.2
68873;BME280;55907;50.806;12.882;2022-11-20T10:01:38;967.0;;;0.6;69.7
68873;BME280;55907;50.806;12.882;2022-11-20T10:04:43;967.0;;;0.6;70.0
68873;BME280;55907;50.806;12.882;2022-11-20T10:07:43;967.0;;;0.6;71.8
68873;BME280;55907;50.806;12.882;2022-11-20T10:10:42;967.0;;;0.6;72.8
68873;BME280;55907;50.806;12.882;2022-11-20T10:13:48;967.1;;;0.6;73.8
68873;BME280;55907;50.806;12.882;2022-11-20T10:16:52;967.1;;;0.7;74.5
68873;BME280;55907;50.806;12.882;2022-11-20T10:19:52;967.0;;;0.7;74.6
68873;BME280;55907;50.806;12.882;2022-11-20T10:22:59;967.1;;;0.7;75.6
68873;BME280;55907;50.806;12.882;2022-11-20T10:25:52;967.1;;;0.7;76.1
68873;BME280;55907;50.806;12.882;2022-11-20T10:28:58;967.1;;;0.6;76.5
68873;BME280;55907;50.806;12.882;2022-11-20T10:31:55;967.0;;;0.7;76.8
68873;BME280;55907;50.806;12.882;2022-11-20T10:34:58;967.0;;;0.6;77.7
68873;BME280;55907;50.806;12.882;2022-11-20T10:37:56;967.0;;;0.5;77.9
68873;BME280;55907;50.806;12.882;2022-11-20T10:40:59;966.9;;;0.7;77.7
68873;BME280;55907;50.806;12.882;2022-11-20T10:44:03;966.9;;;0.7;78.7
68873;BME280;55907;50.806;12.882;2022-11-20T10:46:59;966.9;;;0.8;77.6
68873;BME280;55907;50.806;12.882;2022-11-20T10:50:03;966.9;;;0.8;77.9
68873;BME280;55907;50.806;12.882;2022-11-20T10:53:08;966.9;;;1.0;76.8
68873;BME280;55907;50.806;12.882;2022-11-20T10:56:07;966.9;;;1.0;77.1
68873;BME280;55907;50.806;12.882;2022-11-20T11:02:16;966.9;;;1.2;76.1
68873;BME280;55907;50.806;12.882;2022-11-20T11:05:16;966.8;;;1.3;75.8
68873;BME280;55907;50.806;12.882;2022-11-20T11:08:13;966.8;;;1.4;75.6
68873;BME280;55907;50.806;12.882;2022-11-20T11:11:18;966.8;;;1.2;76.1
68873;BME280;55907;50.806;12.882;2022-11-20T11:14:15;966.8;;;1.3;76.3
68873;BME280;55907;50.806;12.882;2022-11-20T11:17:22;966.8;;;1.3;76.0
68873;BME280;55907;50.806;12.882;2022-11-20T11:20:19;966.7;;;1.3;76.0
68873;BME280;55907;50.806;12.882;2022-11-20T11:23:29;966.7;;;1.3;76.3
68873;BME280;55907;50.806;12.882;2022-11-20T11:26:21;966.6;;;1.3;76.0
68873;BME280;55907;50.806;12.882;2022-11-20T11:29:21;966.5;;;1.4;75.8
68873;BME280;55907;50.806;12.882;2022-11-20T11:32:22;966.5;;;1.5;75.5
68873;BME280;55907;50.806;12.882;2022-11-20T11:35:27;966.5;;;1.4;75.8
68873;BME280;55907;50.806;12.882;2022-11-20T11:38:30;966.5;;;1.5;75.7
68873;BME280;55907;50.806;12.882;2022-11-20T11:41:30;966.4;;;1.5;75.9
68873;BME280;55907;50.806;12.882;2022-11-20T11:44:31;966.4;;;1.4;75.9
68873;BME280;55907;50.806;12.882;2022-11-20T11:47:32;966.4;;;1.5;76.0
68873;BME280;55907;50.806;12.882;2022-11-20T11:50:32;966.4;;;1.5;76.2
68873;BME280;55907;50.806;12.882;2022-11-20T11:53:37;966.4;;;1.6;75.6
68873;BME280;55907;50.806;12.882;2022-11-20T11:56:35;966.4;;;1.6;76.0
68873;BME280;55907;50.806;12.882;2022-11-20T12:02:45;966.3;;;1.5;76.3
68873;BME280;55907;50.806;12.882;2022-11-20T12:05:42;966.3;;;1.6;76.6
68873;BME280;55907;50.806;12.882;2022-11-20T12:08:45;966.3;;;1.5;76.4
68873;BME280;55907;50.806;12.882;2022-11-20T12:11:46;966.3;;;1.6;75.8
68873;BME280;55907;50.806;12.882;2022-11-20T12:14:48;966.3;;;1.5;76.1
68873;BME280;55907;50.806;12.882;2022-11-20T12:17:46;966.3;;;1.4;76.5
68873;BME280;55907;50.806;12.882;2022-11-20T12:20:54;966.2;;;1.3;76.8
68873;BME280;55907;50.806;12.882;2022-11-20T12:24:04;966.2;;;1.3;76.9
68873;BME280;55907;50.806;12.882;2022-11-20T12:27:01;966.2;;;1.3;77.6
68873;BME280;55907;50.806;12.882;2022-11-20T12:29:57;966.1;;;1.3;77.3
68873;BME280;55907;50.806;12.882;2022-11-20T12:33:08;966.1;;;1.3;77.4
68873;BME280;55907;50.806;12.882;2022-11-20T12:36:06;966.1;;;1.3;77.8
68873;BME280;55907;50.806;12.882;2022-11-20T12:39:05;966.0;;;1.3;77.5
68873;BME280;55907;50.806;12.882;2022-11-20T12:42:08;966.1;;;1.3;77.3
68873;BME280;55907;50.806;12.882;2022-11-20T12:45:06;966.2;;;1.3;77.5
68873;BME280;55907;50.806;12.882;2022-11-20T12:48:16;966.2;;;1.3;77.4
68873;BME280;55907;50.806;12.882;2022-11-20T12:51:14;966.2;;;1.2;78.2
68873;BME280;55907;50.806;12.882;2022-11-20T12:54:16;966.2;;;1.2;78.2
68873;BME280;55907;50.806;12.882;2022-11-20T12:57:10;966.1;;;1.2;78.8
68873;BME280;55907;50.806;12.882;2022-11-20T13:00:11;966.1;;;1.3;78.6
68873;BME280;55907;50.806;12.882;2022-11-20T13:06:14;966.0;;;1.3;78.7
68873;BME280;55907;50.806;12.882;2022-11-20T13:09:14;966.0;;;1.3;78.8
68873;BME280;55907;50.806;12.882;2022-11-20T13:12:17;966.0;;;1.3;78.8
68873;BME280;55907;50.806;12.882;2022-11-20T13:15:22;966.1;;;1.4;78.8
68873;BME280;55907;50.806;12.882;2022-11-20T13:18:17;966.1;;;1.4;78.2
68873;BME280;55907;50.806;12.882;2022-11-20T13:21:21;966.0;;;1.4;79.0
68873;BME280;55907;50.806;12.882;2022-11-20T13:24:22;966.0;;;1.3;79.9
68873;BME280;55907;50.806;12.882;2022-11-20T13:27:23;966.0;;;1.3;79.6
68873;BME280;55907;50.806;12.882;2022-11-20T13:30:24;966.0;;;1.3;79.3
68873;BME280;55907;50.806;12.882;2022-11-20T13:33:29;966.0;;;1.4;79.2
68873;BME280;55907;50.806;12.882;2022-11-20T13:36:28;966.0;;;1.3;79.2
68873;BME280;55907;50.806;12.882;2022-11-20T13:39:30;966.0;;;1.4;79.0
68873;BME280;55907;50.806;12.882;2022-11-20T13:42:29;966.1;;;1.4;79.3
68873;BME280;55907;50.806;12.882;2022-11-20T13:45:32;966.1;;;1.4;79.7
68873;BME280;55907;50.806;12.882;2022-11-20T13:48:34;966.1;;;1.4;79.7
68873;BME280;55907;50.806;12.882;2022-11-20T13:51:41;966.1;;;1.2;79.9
68873;BME280;55907;50.806;12.882;2022-11-20T13:54:45;966.1;;;1.2;80.4
68873;BME280;55907;50.806;12.882;2022-11-20T13:57:47;966.0;;;1.3;80.1
68873;BME280;55907;50.806;12.882;2022-11-20T14:00:44;966.0;;;1.2;80.5
68873;BME280;55907;50.806;12.882;2022-11-20T14:03:41;966.0;;;1.3;80.1
68873;BME280;55907;50.806;12.882;2022-11-20T14:06:44;966.0;;;1.4;79.9
68873;BME280;55907;50.806;12.882;2022-11-20T14:09:50;966.1;;;1.4;79.4
68873;BME280;55907;50.806;12.882;2022-11-20T14:12:45;966.1;;;1.4;79.5
68873;BME280;55907;50.806;12.882;2022-11-20T14:15:47;966.1;;;1.3;80.6
68873;BME280;55907;50.806;12.882;2022-11-20T14:18:48;966.1;;;1.4;80.4
68873;BME280;55907;50.806;12.882;2022-11-20T14:21:52;966.0;;;1.4;80.3
68873;BME280;55907;50.806;12.882;2022-11-20T14:25:02;966.0;;;1.4;79.9
68873;BME280;55907;50.806;12.882;2022-11-20T14:27:54;966.1;;;1.3;80.3
68873;BME280;55907;50.806;12.882;2022-11-20T14:30:56;966.1;;;1.3;80.4
68873;BME280;55907;50.806;12.882;2022-11-20T14:33:56;966.1;;;1.2;80.5
68873;BME280;55907;50.806;12.882;2022-11-20T14:36:59;966.1;;;1.3;80.2
68873;BME280;55907;50.806;12.882;2022-11-20T14:40:24;966.0;;;1.3;79.9
68873;BME280;55907;50.806;12.882;2022-11-20T14:43:02;966.1;;;1.1;81.2
68873;BME280;55907;50.806;12.882;2022-11-20T14:46:04;966.0;;;1.1;80.2
68873;BME280;55907;50.806;12.882;2022-11-20T14:49:05;966.0;;;1.1;80.0
68873;BME280;55907;50.806;12.882;2022-11-20T14:52:11;966.0;;;1.0;80.6
68873;BME280;55907;50.806;12.882;2022-11-20T14:52:54;unavailable;;;unavailable;unavailable
68873;BME280;55907;50.806;12.882;2022-11-20T14:52:57;966.0;;;1.0;80.6
68873;BME280;55907;50.806;12.882;2022-11-20T14:55:13;966.0;;;1.0;80.0
68873;BME280;55907;50.806;12.882;2022-11-20T14:57:20;unavailable;;;unavailable;unavailable
68873;BME280;55907;50.806;12.882;2022-11-20T14:57:37;unavailable;;;unavailable;unavailable
68873;BME280;55907;50.806;12.882;2022-11-20T14:57:40;965.9;;;0.9;unavailable
68873;BME280;55907;50.806;12.882;2022-11-20T14:58:20;966.0;;;0.9;80.1
68873;BME280;55907;50.806;12.882;2022-11-20T15:01:12;966.0;;;0.7;79.9
68873;BME280;55907;50.806;12.882;2022-11-20T15:04:14;965.9;;;0.6;80.2
68873;BME280;55907;50.806;12.882;2022-11-20T15:06:28;unavailable;;;unavailable;unavailable
68873;BME280;55907;50.806;12.882;2022-11-20T15:06:49;966.0;;;0.4;80.6
68873;BME280;55907;50.806;12.882;2022-11-20T15:07:28;unavailable;;;unavailable;unavailable
68873;BME280;55907;50.806;12.882;2022-11-20T15:08:06;966.0;;;0.4;80.9
68873;BME280;55907;50.806;12.882;2022-11-20T15:10:21;965.9;;;0.3;81.3
68873;BME280;55907;50.806;12.882;2022-11-20T15:13:19;966.0;;;0.3;81.2